Time;durP1;ratioP1;P1;durP2;ratioP2;P2;SDS_P1;SDS_P2;PMS_P1;PMS_P2;Temp;Humidity;BMP_temperature;BMP_pressure;BME280_temperature;BME280_humidity;BME280_pressure;Samples;Min_cycle;Max_cycle;Signal;HPM_P1;HPM_P2
2022/08/26 00:00:10;;;;;;;21.60;10.63;;;;;;;;;;5072444;28;20528;-69
2022/08/26 00:02:36;;;;;;;21.90;10.18;;;;;;;;;;5072922;28;20029;-67
2022/08/26 00:05:02;;;;;;;23.88;9.65;;;;;;;;;;5076495;28;20082;-68
2022/08/26 00:07:28;;;;;;;20.98;10.35;;;;;;;;;;5076478;28;20028;-67
2022/08/26 00:09:53;;;;;;;25.20;9.80;;;;;;;;;;5076428;28;20017;-69
2022/08/26 00:12:19;;;;;;;17.23;9.57;;;;;;;;;;5076125;28;20028;-69
2022/08/26 00:14:45;;;;;;;21.10;11.10;;;;;;;;;;5076341;28;20032;-68
2022/08/26 00:17:10;;;;;;;21.38;10.45;;;;;;;;;;5076217;28;20024;-69
2022/08/26 00:19:36;;;;;;;16.88;10.18;;;;;;;;;;5076051;28;20067;-68
2022/08/26 00:22:02;;;;;;;21.27;10.82;;;;;;;;;;5075960;28;20066;-69
2022/08/26 00:24:27;;;;;;;22.20;11.07;;;;;;;;;;5076146;28;20093;-69
2022/08/26 00:26:53;;;;;;;29.35;10.45;;;;;;;;;;5075727;28;20031;-66
2022/08/26 00:29:18;;;;;;;26.08;11.57;;;;;;;;;;5075883;28;20021;-68
2022/08/26 00:31:44;;;;;;;18.80;9.98;;;;;;;;;;5075991;28;20024;-68
2022/08/26 00:34:10;;;;;;;20.40;10.25;;;;;;;;;;5075714;28;20029;-65
2022/08/26 00:36:36;;;;;;;20.00;11.00;;;;;;;;;;5075704;28;20024;-68
2022/08/26 00:41:39;;;;;;;19.92;10.07;;;;;;;;;;5912691;22;20488;-65
2022/08/26 00:44:05;;;;;;;21.75;9.98;;;;;;;;;;5035812;28;20021;-64
2022/08/26 00:46:37;;;;;;;19.85;10.07;;;;;;;;;;5035550;28;20021;-63
2022/08/26 00:49:16;;;;;;;21.88;10.27;;;;;;;;;;5035555;28;20033;-69
2022/08/26 00:51:47;;;;;;;22.77;10.73;;;;;;;;;;5035422;28;20057;-64
2022/08/26 00:54:14;;;;;;;15.40;10.60;;;;;;;;;;5035692;28;20380;-63
2022/08/26 00:57:00;;;;;;;22.15;9.90;;;;;;;;;;5035363;28;20075;-62
2022/08/26 00:59:28;;;;;;;19.88;10.98;;;;;;;;;;5035252;28;20116;-68
2022/08/26 01:01:55;;;;;;;24.73;10.98;;;;;;;;;;5035630;28;20037;-67
2022/08/26 01:04:22;;;;;;;23.60;12.07;;;;;;;;;;5035425;28;20025;-68
2022/08/26 01:06:51;;;;;;;18.75;11.18;;;;;;;;;;5035456;28;20025;-67
2022/08/26 01:09:17;;;;;;;21.90;10.25;;;;;;;;;;5035386;28;20025;-68
2022/08/26 01:11:44;;;;;;;32.40;11.30;;;;;;;;;;5035197;28;20143;-67
2022/08/26 01:14:12;;;;;;;21.83;10.45;;;;;;;;;;5034679;28;20033;-66
2022/08/26 01:16:38;;;;;;;18.60;11.48;;;;;;;;;;5035229;28;20032;-67
2022/08/26 01:19:14;;;;;;;24.17;11.38;;;;;;;;;;5035148;28;20029;-67
2022/08/26 01:21:48;;;;;;;23.30;11.10;;;;;;;;;;5035146;28;20387;-68
2022/08/26 01:24:14;;;;;;;25.98;11.77;;;;;;;;;;5035265;28;20029;-68
2022/08/26 01:26:42;;;;;;;24.00;10.80;;;;;;;;;;5033596;28;20549;-67
2022/08/26 01:29:13;;;;;;;22.92;11.70;;;;;;;;;;5034915;28;20048;-68
2022/08/26 01:31:43;;;;;;;20.20;11.00;;;;;;;;;;5034950;28;20110;-68
2022/08/26 01:34:24;;;;;;;18.58;11.10;;;;;;;;;;5034804;28;20144;-68
2022/08/26 01:36:55;;;;;;;24.17;12.38;;;;;;;;;;5034826;28;20037;-67
2022/08/26 01:39:21;;;;;;;24.08;12.57;;;;;;;;;;5034525;28;20037;-68
2022/08/26 01:41:49;;;;;;;21.58;11.80;;;;;;;;;;5034478;28;20049;-65
2022/08/26 01:44:18;;;;;;;21.63;10.68;;;;;;;;;;5051270;28;20036;-67
2022/08/26 01:46:47;;;;;;;21.92;12.73;;;;;;;;;;5054734;28;20082;-67
2022/08/26 01:49:14;;;;;;;24.63;12.38;;;;;;;;;;5054418;28;20028;-66
2022/08/26 01:51:39;;;;;;;22.70;11.70;;;;;;;;;;5054402;28;20033;-63
2022/08/26 01:54:07;;;;;;;25.10;12.80;;;;;;;;;;5054292;28;20053;-67
2022/08/26 01:56:33;;;;;;;23.27;11.98;;;;;;;;;;5054330;28;20029;-66
2022/08/26 01:59:01;;;;;;;26.08;11.73;;;;;;;;;;5054391;28;20028;-63
2022/08/26 02:01:27;;;;;;;35.90;14.25;;;;;;;;;;5054288;28;20086;-68
2022/08/26 02:04:15;;;;;;;25.90;12.95;;;;;;;;;;5054255;28;20104;-62
2022/08/26 02:06:41;;;;;;;26.80;13.32;;;;;;;;;;5054134;28;20476;-69
2022/08/26 02:09:07;;;;;;;19.70;12.27;;;;;;;;;;5054011;28;20021;-64
2022/08/26 02:11:34;;;;;;;27.48;13.27;;;;;;;;;;5054000;28;20036;-69
2022/08/26 02:14:09;;;;;;;22.15;12.65;;;;;;;;;;5054000;28;20182;-64
2022/08/26 02:16:39;;;;;;;22.27;12.90;;;;;;;;;;5050754;28;20112;-67
2022/08/26 02:19:08;;;;;;;28.10;13.25;;;;;;;;;;5034009;28;20033;-68
2022/08/26 02:21:34;;;;;;;28.65;13.82;;;;;;;;;;5033968;28;20171;-63
2022/08/26 02:24:16;;;;;;;24.45;14.55;;;;;;;;;;5033813;28;20105;-66
2022/08/26 02:26:43;;;;;;;25.30;13.50;;;;;;;;;;5033231;28;20047;-68
2022/08/26 02:29:18;;;;;;;31.33;13.85;;;;;;;;;;5033962;28;20030;-66
2022/08/26 02:31:44;;;;;;;22.75;13.77;;;;;;;;;;5033706;28;20503;-67
2022/08/26 02:34:18;;;;;;;23.65;13.45;;;;;;;;;;5033905;28;20117;-64
2022/08/26 02:36:43;;;;;;;25.65;13.80;;;;;;;;;;5033847;28;20091;-66
2022/08/26 02:39:09;;;;;;;24.08;13.45;;;;;;;;;;5033343;28;20029;-67
2022/08/26 02:41:35;;;;;;;31.55;13.82;;;;;;;;;;5033440;28;20199;-67
2022/08/26 02:44:00;;;;;;;24.27;14.25;;;;;;;;;;5048233;28;20039;-64
2022/08/26 02:46:26;;;;;;;31.80;14.93;;;;;;;;;;5053276;28;20136;-67
2022/08/26 02:48:52;;;;;;;27.10;14.38;;;;;;;;;;5053399;28;20090;-68
2022/08/26 02:51:17;;;;;;;28.65;14.63;;;;;;;;;;5053095;28;20032;-67
2022/08/26 02:53:43;;;;;;;29.05;14.35;;;;;;;;;;5053113;28;20036;-68
2022/08/26 02:56:09;;;;;;;29.60;14.00;;;;;;;;;;5053506;28;20094;-67
2022/08/26 02:58:34;;;;;;;23.95;13.98;;;;;;;;;;5053154;28;20025;-67
2022/08/26 03:01:00;;;;;;;26.08;13.02;;;;;;;;;;5052967;28;20071;-67
2022/08/26 03:03:26;;;;;;;22.33;13.85;;;;;;;;;;5053233;28;20104;-67
2022/08/26 03:05:52;;;;;;;26.10;13.82;;;;;;;;;;5053067;28;20107;-68
2022/08/26 03:08:18;;;;;;;23.60;14.20;;;;;;;;;;5052813;28;20479;-67
2022/08/26 03:10:46;;;;;;;25.05;13.57;;;;;;;;;;5053046;28;20056;-67
2022/08/26 03:13:12;;;;;;;28.08;15.48;;;;;;;;;;5052887;28;20029;-67
2022/08/26 03:15:37;;;;;;;25.83;14.40;;;;;;;;;;5052874;28;20058;-68
2022/08/26 03:18:04;;;;;;;25.38;13.88;;;;;;;;;;5052916;28;20387;-63
2022/08/26 03:20:30;;;;;;;25.27;14.70;;;;;;;;;;5052919;28;20087;-64
2022/08/26 03:22:55;;;;;;;28.58;13.10;;;;;;;;;;5052483;28;20197;-67
2022/08/26 03:25:21;;;;;;;24.75;11.93;;;;;;;;;;5052761;28;20029;-65
2022/08/26 03:27:47;;;;;;;24.08;12.07;;;;;;;;;;5052750;28;20356;-63
2022/08/26 03:32:59;;;;;;;21.20;10.98;;;;;;;;;;5053026;28;20032;-67
2022/08/26 03:35:25;;;;;;;18.23;11.25;;;;;;;;;;5052516;28;20060;-66
2022/08/26 03:37:52;;;;;;;22.35;12.20;;;;;;;;;;5052341;28;20498;-68
2022/08/26 03:40:18;;;;;;;23.15;12.63;;;;;;;;;;5052691;28;20032;-66
2022/08/26 03:42:44;;;;;;;23.73;12.18;;;;;;;;;;5052155;28;20053;-66
2022/08/26 03:45:10;;;;;;;22.90;13.27;;;;;;;;;;5052481;28;20384;-66
2022/08/26 03:47:37;;;;;;;18.88;11.75;;;;;;;;;;5052507;28;20040;-63
2022/08/26 03:50:04;;;;;;;27.38;12.15;;;;;;;;;;5052498;28;20127;-65
2022/08/26 03:52:30;;;;;;;22.83;12.27;;;;;;;;;;5052381;28;20464;-62
2022/08/26 03:54:55;;;;;;;22.13;12.52;;;;;;;;;;5052394;28;20037;-63
2022/08/26 03:57:21;;;;;;;22.48;13.02;;;;;;;;;;5052464;28;20032;-66
2022/08/26 03:59:46;;;;;;;22.77;12.50;;;;;;;;;;5052321;28;20040;-63
2022/08/26 04:02:12;;;;;;;22.80;12.50;;;;;;;;;;5052358;28;20037;-67
2022/08/26 04:04:38;;;;;;;22.08;12.18;;;;;;;;;;5052242;28;20480;-67
2022/08/26 04:07:03;;;;;;;27.35;13.02;;;;;;;;;;5052489;28;20106;-66
2022/08/26 04:09:30;;;;;;;33.72;12.85;;;;;;;;;;5052528;28;20025;-64
2022/08/26 04:11:57;;;;;;;22.70;12.32;;;;;;;;;;5052390;28;20104;-63
2022/08/26 04:14:24;;;;;;;23.23;12.50;;;;;;;;;;5052445;28;20499;-65
2022/08/26 04:16:51;;;;;;;27.30;13.02;;;;;;;;;;5052366;28;20025;-64
2022/08/26 04:19:18;;;;;;;27.58;13.55;;;;;;;;;;5051923;28;20032;-66
2022/08/26 04:21:44;;;;;;;26.42;12.88;;;;;;;;;;5052148;28;20096;-64
2022/08/26 04:24:12;;;;;;;24.08;12.55;;;;;;;;;;5052345;28;20052;-65
2022/08/26 04:26:39;;;;;;;29.00;12.95;;;;;;;;;;5051831;28;20033;-66
2022/08/26 04:29:09;;;;;;;27.13;13.38;;;;;;;;;;5052053;28;20033;-63
2022/08/26 04:31:36;;;;;;;25.80;13.52;;;;;;;;;;5052179;28;20013;-65
2022/08/26 04:34:03;;;;;;;25.77;12.77;;;;;;;;;;5051927;28;20082;-65
2022/08/26 04:36:29;;;;;;;24.02;13.05;;;;;;;;;;5052026;28;20055;-66
2022/08/26 04:38:55;;;;;;;26.90;13.82;;;;;;;;;;5051974;28;20056;-65
2022/08/26 04:41:22;;;;;;;25.65;12.60;;;;;;;;;;5051711;28;20033;-62
2022/08/26 04:43:49;;;;;;;27.33;13.30;;;;;;;;;;5051716;28;20510;-64
2022/08/26 04:46:21;;;;;;;27.40;13.18;;;;;;;;;;5051857;28;20117;-64
2022/08/26 04:48:49;;;;;;;21.60;13.95;;;;;;;;;;5052401;28;20479;-66
2022/08/26 04:51:15;;;;;;;23.23;13.90;;;;;;;;;;5055218;28;20032;-63
2022/08/26 04:53:40;;;;;;;26.25;14.52;;;;;;;;;;5055383;28;20021;-63
2022/08/26 04:56:07;;;;;;;30.33;14.15;;;;;;;;;;5055369;28;20402;-66
2022/08/26 04:58:33;;;;;;;26.25;13.55;;;;;;;;;;5055235;28;20025;-63
2022/08/26 05:00:59;;;;;;;27.23;13.65;;;;;;;;;;5055196;28;20021;-64
2022/08/26 05:03:26;;;;;;;26.67;14.10;;;;;;;;;;5054941;28;20056;-64
2022/08/26 05:05:52;;;;;;;32.58;14.55;;;;;;;;;;5055545;28;20450;-67
2022/08/26 05:08:19;;;;;;;27.95;14.68;;;;;;;;;;5055443;28;20052;-63
2022/08/26 05:10:54;;;;;;;31.75;15.02;;;;;;;;;;5055174;28;20024;-70
2022/08/26 05:13:23;;;;;;;23.23;14.63;;;;;;;;;;5055281;28;20447;-70
2022/08/26 05:15:50;;;;;;;24.73;14.82;;;;;;;;;;5055232;28;20067;-69
2022/08/26 05:18:19;;;;;;;28.25;15.20;;;;;;;;;;5054859;28;20028;-65
2022/08/26 05:20:48;;;;;;;29.48;14.02;;;;;;;;;;5054980;28;20425;-69
2022/08/26 05:23:14;;;;;;;29.30;15.13;;;;;;;;;;5055167;28;20040;-70
2022/08/26 05:25:42;;;;;;;30.15;14.48;;;;;;;;;;5054850;28;20029;-64
2022/08/26 05:28:09;;;;;;;21.95;13.88;;;;;;;;;;5053605;28;20390;-65
2022/08/26 05:30:35;;;;;;;23.88;15.00;;;;;;;;;;5054677;28;20040;-70
2022/08/26 05:33:01;;;;;;;26.90;14.50;;;;;;;;;;5054645;28;20048;-66
2022/08/26 05:35:32;;;;;;;29.13;14.77;;;;;;;;;;5055031;28;20029;-68
2022/08/26 05:38:02;;;;;;;29.67;14.43;;;;;;;;;;5054611;28;20480;-65
2022/08/26 05:40:30;;;;;;;31.35;14.63;;;;;;;;;;5054629;28;20111;-66
2022/08/26 05:42:56;;;;;;;28.65;14.13;;;;;;;;;;5054224;28;20088;-68
2022/08/26 05:45:24;;;;;;;23.92;14.05;;;;;;;;;;5054517;28;20048;-65
2022/08/26 05:47:50;;;;;;;27.23;13.57;;;;;;;;;;5054350;28;20025;-66
2022/08/26 05:50:20;;;;;;;25.80;14.48;;;;;;;;;;5053228;28;20036;-69
2022/08/26 05:52:48;;;;;;;35.85;14.40;;;;;;;;;;5054387;28;20036;-69
2022/08/26 05:55:15;;;;;;;23.08;13.57;;;;;;;;;;5053150;28;20438;-67
2022/08/26 05:57:40;;;;;;;32.63;14.23;;;;;;;;;;5054452;28;20025;-69
2022/08/26 06:00:08;;;;;;;30.02;13.57;;;;;;;;;;5054204;28;20056;-69
2022/08/26 06:02:33;;;;;;;31.90;15.20;;;;;;;;;;5054117;28;20128;-69
2022/08/26 06:04:59;;;;;;;25.92;13.82;;;;;;;;;;5054393;28;20048;-68
2022/08/26 06:08:09;;;;;;;30.83;13.77;;;;;;;;;;5054476;28;20032;-69
2022/08/26 06:10:16;;;;;;;28.13;13.32;;;;;;;;;;5054169;28;20037;-66
2022/08/26 06:12:41;;;;;;;21.90;13.07;;;;;;;;;;5054102;28;20025;-66
2022/08/26 06:15:07;;;;;;;24.98;12.90;;;;;;;;;;5054090;28;20029;-66
2022/08/26 06:17:35;;;;;;;28.58;12.88;;;;;;;;;;5054161;28;20032;-65
2022/08/26 06:20:01;;;;;;;32.47;13.32;;;;;;;;;;5052742;28;20057;-66
2022/08/26 06:27:55;;;;;;;31.10;12.95;;;;;;;;;;5053876;28;20502;-66
2022/08/26 06:30:20;;;;;;;29.77;12.50;;;;;;;;;;5052202;28;20033;-64
2022/08/26 06:32:46;;;;;;;27.55;12.27;;;;;;;;;;5053947;28;20107;-65
2022/08/26 06:35:11;;;;;;;22.95;12.73;;;;;;;;;;5053573;28;20129;-68
2022/08/26 06:37:41;;;;;;;23.83;12.35;;;;;;;;;;5053686;28;20021;-67
2022/08/26 06:40:07;;;;;;;26.42;12.48;;;;;;;;;;5053630;28;20071;-68
2022/08/26 06:42:33;;;;;;;27.90;12.07;;;;;;;;;;5053200;28;20045;-68
2022/08/26 06:44:58;;;;;;;29.77;11.48;;;;;;;;;;5053327;28;20037;-66
2022/08/26 06:47:24;;;;;;;23.05;11.48;;;;;;;;;;5053282;28;20021;-70
2022/08/26 06:49:50;;;;;;;23.27;11.23;;;;;;;;;;5053255;28;20028;-69
2022/08/26 06:52:16;;;;;;;26.70;10.90;;;;;;;;;;5053386;28;20033;-67
2022/08/26 06:54:42;;;;;;;25.48;9.90;;;;;;;;;;5053400;28;20036;-70
2022/08/26 06:57:11;;;;;;;27.05;10.57;;;;;;;;;;5053168;28;20423;-66
2022/08/26 06:59:37;;;;;;;26.77;10.07;;;;;;;;;;5053020;28;20033;-68
2022/08/26 07:02:04;;;;;;;23.38;9.63;;;;;;;;;;5053186;28;20025;-64
2022/08/26 07:04:30;;;;;;;22.10;8.98;;;;;;;;;;5053198;28;20368;-67
2022/08/26 07:06:56;;;;;;;28.50;9.00;;;;;;;;;;5053161;28;20036;-66
2022/08/26 07:09:23;;;;;;;20.88;8.65;;;;;;;;;;5053099;28;20025;-67
2022/08/26 07:11:50;;;;;;;30.95;9.57;;;;;;;;;;5052684;28;20025;-69
2022/08/26 07:14:17;;;;;;;20.92;8.65;;;;;;;;;;5052758;28;20175;-67
2022/08/26 07:16:43;;;;;;;23.48;8.70;;;;;;;;;;5052987;28;20455;-66
2022/08/26 07:19:09;;;;;;;23.25;8.60;;;;;;;;;;5052811;28;20040;-66
2022/08/26 07:21:35;;;;;;;23.25;8.27;;;;;;;;;;5052709;28;20025;-67
2022/08/26 07:24:00;;;;;;;20.05;8.15;;;;;;;;;;5052996;28;20035;-66
2022/08/26 07:26:27;;;;;;;27.27;8.73;;;;;;;;;;5052979;28;20430;-69
2022/08/26 07:28:55;;;;;;;20.92;8.02;;;;;;;;;;5052567;28;20494;-68
2022/08/26 07:31:24;;;;;;;25.58;8.38;;;;;;;;;;5052823;28;20102;-65
2022/08/26 07:33:50;;;;;;;22.55;7.35;;;;;;;;;;5052704;28;20029;-69
2022/08/26 07:36:17;;;;;;;24.90;8.27;;;;;;;;;;5052738;28;20033;-69
2022/08/26 07:38:44;;;;;;;23.63;8.05;;;;;;;;;;5052580;28;20426;-65
2022/08/26 07:41:11;;;;;;;22.23;7.60;;;;;;;;;;5052437;28;20017;-67
2022/08/26 07:43:38;;;;;;;28.98;8.13;;;;;;;;;;5052050;28;20498;-66
2022/08/26 07:46:05;;;;;;;24.15;7.75;;;;;;;;;;5052687;28;20036;-63
2022/08/26 07:48:31;;;;;;;22.17;6.95;;;;;;;;;;5052447;28;20056;-63
2022/08/26 07:50:57;;;;;;;29.65;7.68;;;;;;;;;;5052515;28;20017;-63
2022/08/26 07:53:23;;;;;;;21.75;7.50;;;;;;;;;;5052360;28;20033;-63
2022/08/26 07:55:49;;;;;;;25.35;7.70;;;;;;;;;;5052622;28;20047;-63
2022/08/26 07:58:15;;;;;;;31.27;7.38;;;;;;;;;;5052388;28;20025;-63
2022/08/26 08:00:41;;;;;;;24.70;6.38;;;;;;;;;;5052368;28;20556;-66
2022/08/26 08:03:07;;;;;;;24.67;7.70;;;;;;;;;;5052441;28;20029;-68
2022/08/26 08:05:33;;;;;;;29.65;7.05;;;;;;;;;;5052505;28;20103;-66
2022/08/26 08:08:00;;;;;;;24.35;6.88;;;;;;;;;;5052425;28;20082;-63
2022/08/26 08:10:27;;;;;;;25.83;5.82;;;;;;;;;;5052139;28;20109;-65
2022/08/26 08:12:54;;;;;;;26.02;6.63;;;;;;;;;;5052136;28;20037;-67
2022/08/26 08:15:23;;;;;;;23.33;6.55;;;;;;;;;;5052339;28;20475;-66
2022/08/26 08:17:49;;;;;;;23.02;6.10;;;;;;;;;;5052290;28;20029;-64
2022/08/26 08:20:16;;;;;;;32.47;6.35;;;;;;;;;;5051085;28;20029;-68
2022/08/26 08:22:41;;;;;;;24.85;6.13;;;;;;;;;;5052361;28;20074;-69
2022/08/26 08:25:08;;;;;;;20.40;6.10;;;;;;;;;;5054892;28;20467;-69
2022/08/26 08:27:35;;;;;;;24.10;5.70;;;;;;;;;;5056159;28;20029;-63
2022/08/26 08:30:01;;;;;;;28.60;5.82;;;;;;;;;;5055932;28;20025;-63
2022/08/26 08:32:28;;;;;;;27.27;6.63;;;;;;;;;;5056044;28;20361;-63
2022/08/26 08:34:54;;;;;;;25.35;6.50;;;;;;;;;;5055946;28;20116;-66
2022/08/26 08:37:20;;;;;;;27.80;6.30;;;;;;;;;;5055872;28;20031;-68
2022/08/26 08:39:46;;;;;;;19.75;6.00;;;;;;;;;;5054070;28;20119;-64
2022/08/26 08:42:50;;;;;;;23.08;5.63;;;;;;;;;;5055610;28;20055;-63
2022/08/26 08:45:37;;;;;;;26.77;6.18;;;;;;;;;;4994154;28;20459;-65
2022/08/26 08:48:20;;;;;;;28.42;6.60;;;;;;;;;;4994372;28;20141;-66
2022/08/26 08:50:52;;;;;;;19.92;5.75;;;;;;;;;;4994260;28;20057;-70
2022/08/26 08:53:37;;;;;;;23.63;6.05;;;;;;;;;;4994255;28;20057;-65
2022/08/26 08:56:22;;;;;;;17.25;6.22;;;;;;;;;;4994030;28;20062;-66
2022/08/26 08:59:17;;;;;;;22.95;6.18;;;;;;;;;;4994128;28;20350;-66
2022/08/26 09:01:48;;;;;;;20.10;6.47;;;;;;;;;;4977575;28;20031;-65
2022/08/26 09:05:01;;;;;;;23.85;6.68;;;;;;;;;;4994128;28;20057;-65
2022/08/26 09:07:38;;;;;;;18.08;7.47;;;;;;;;;;4993992;28;20060;-66
2022/08/26 09:10:31;;;;;;;26.85;7.78;;;;;;;;;;4993720;28;20216;-72
2022/08/26 09:12:57;;;;;;;23.50;7.45;;;;;;;;;;4994018;28;20038;-72
2022/08/26 09:15:28;;;;;;;24.52;7.75;;;;;;;;;;5008406;28;20059;-69
2022/08/26 09:18:16;;;;;;;23.20;7.10;;;;;;;;;;5055226;28;20021;-69
2022/08/26 09:21:03;;;;;;;22.75;6.78;;;;;;;;;;5054990;28;20032;-68
2022/08/26 09:23:31;;;;;;;17.02;6.55;;;;;;;;;;5054970;28;20036;-71
2022/08/26 09:26:11;;;;;;;23.83;6.93;;;;;;;;;;5055059;28;20383;-70
2022/08/26 09:28:41;;;;;;;21.27;7.13;;;;;;;;;;5055052;28;20025;-69
2022/08/26 09:31:31;;;;;;;23.33;6.70;;;;;;;;;;5054776;28;20478;-67
2022/08/26 09:34:11;;;;;;;21.83;6.47;;;;;;;;;;5054643;28;20033;-66
2022/08/26 09:36:40;;;;;;;22.80;6.15;;;;;;;;;;5054780;28;20037;-68
2022/08/26 09:39:36;;;;;;;22.55;6.30;;;;;;;;;;5054437;28;20383;-66
2022/08/26 09:42:34;;;;;;;19.40;6.35;;;;;;;;;;5041941;28;20073;-70
2022/08/26 09:45:04;;;;;;;19.75;5.85;;;;;;;;;;4993078;28;20089;-66
2022/08/26 09:47:32;;;;;;;19.45;6.00;;;;;;;;;;4993100;28;20504;-67
2022/08/26 09:50:08;;;;;;;17.25;5.43;;;;;;;;;;4993025;28;20544;-65
2022/08/26 09:52:33;;;;;;;20.98;5.80;;;;;;;;;;4992823;28;20043;-65
2022/08/26 09:55:01;;;;;;;24.67;4.97;;;;;;;;;;4993119;28;20038;-69
2022/08/26 09:57:30;;;;;;;21.98;6.05;;;;;;;;;;4993117;28;20026;-68
2022/08/26 09:59:59;;;;;;;23.30;5.82;;;;;;;;;;4992936;28;20084;-70
2022/08/26 10:02:30;;;;;;;20.80;6.03;;;;;;;;;;4992927;28;20042;-64
2022/08/26 10:04:58;;;;;;;25.58;6.10;;;;;;;;;;4992984;28;20038;-69
2022/08/26 10:07:40;;;;;;;23.77;6.07;;;;;;;;;;4992685;28;20126;-67
2022/08/26 10:10:21;;;;;;;27.27;5.47;;;;;;;;;;4992923;28;20034;-70
2022/08/26 10:13:10;;;;;;;25.10;5.53;;;;;;;;;;4992859;28;20030;-65
2022/08/26 10:15:45;;;;;;;23.23;6.07;;;;;;;;;;4976400;28;20065;-69
2022/08/26 10:18:19;;;;;;;31.38;6.05;;;;;;;;;;4992765;28;20030;-70
2022/08/26 10:21:09;;;;;;;28.10;5.78;;;;;;;;;;5027759;28;20065;-66
2022/08/26 10:23:45;;;;;;;23.38;5.30;;;;;;;;;;5053726;28;20025;-65
2022/08/26 10:26:52;;;;;;;26.25;5.50;;;;;;;;;;5053847;28;20391;-69
2022/08/26 10:29:28;;;;;;;22.52;5.65;;;;;;;;;;5053596;28;20446;-67
2022/08/26 10:32:05;;;;;;;20.50;5.72;;;;;;;;;;5053717;28;20050;-68
2022/08/26 10:34:32;;;;;;;26.95;6.03;;;;;;;;;;5053674;28;20388;-68
2022/08/26 10:37:07;;;;;;;31.52;6.03;;;;;;;;;;5053344;28;20475;-69
2022/08/26 10:39:54;;;;;;;21.23;5.20;;;;;;;;;;5053453;28;20376;-64
2022/08/26 10:42:34;;;;;;;24.55;5.63;;;;;;;;;;5053159;28;20040;-66
2022/08/26 10:45:24;;;;;;;22.58;5.32;;;;;;;;;;5052222;28;20051;-68
2022/08/26 10:47:58;;;;;;;22.48;5.45;;;;;;;;;;5052576;28;20029;-68
2022/08/26 10:50:30;;;;;;;24.17;5.72;;;;;;;;;;5053080;28;20028;-68
2022/08/26 10:53:17;;;;;;;19.02;4.85;;;;;;;;;;5053503;28;20021;-68
2022/08/26 10:55:50;;;;;;;28.52;5.60;;;;;;;;;;5053432;28;20063;-65
2022/08/26 10:58:27;;;;;;;26.90;5.82;;;;;;;;;;5053273;28;20503;-64
2022/08/26 11:04:18;;;;;;;18.83;5.20;;;;;;;;;;5053455;28;20047;-64
2022/08/26 11:06:47;;;;;;;19.23;4.80;;;;;;;;;;5052921;28;20432;-68
2022/08/26 11:09:45;;;;;;;25.73;6.00;;;;;;;;;;5052901;28;20037;-66
2022/08/26 11:12:35;;;;;;;22.17;5.28;;;;;;;;;;5053061;28;20405;-72
2022/08/26 11:15:06;;;;;;;23.48;5.15;;;;;;;;;;5052940;28;20025;-68
2022/08/26 11:17:43;;;;;;;19.92;5.50;;;;;;;;;;5052912;28;20044;-69
2022/08/26 11:20:22;;;;;;;24.17;6.28;;;;;;;;;;5052520;28;20037;-68
2022/08/26 11:22:49;;;;;;;26.38;5.68;;;;;;;;;;5053077;28;20025;-68
2022/08/26 11:25:17;;;;;;;25.60;6.20;;;;;;;;;;5052710;28;20526;-66
2022/08/26 11:27:51;;;;;;;20.08;5.40;;;;;;;;;;5052675;28;20057;-67
2022/08/26 11:30:18;;;;;;;23.98;6.25;;;;;;;;;;5052617;28;20025;-68
2022/08/26 11:32:46;;;;;;;26.25;5.80;;;;;;;;;;5052731;28;20350;-69
2022/08/26 11:35:18;;;;;;;18.97;5.87;;;;;;;;;;5052441;28;20078;-66
2022/08/26 11:37:49;;;;;;;30.38;5.72;;;;;;;;;;5052437;28;20471;-69
2022/08/26 11:40:20;;;;;;;23.17;5.40;;;;;;;;;;5052402;28;20155;-69
2022/08/26 11:42:53;;;;;;;24.48;5.78;;;;;;;;;;5052128;28;20033;-68
2022/08/26 11:45:32;;;;;;;20.40;5.70;;;;;;;;;;5052490;28;20399;-67
2022/08/26 11:48:28;;;;;;;20.90;5.82;;;;;;;;;;5052451;28;20025;-68
2022/08/26 11:51:06;;;;;;;26.30;6.13;;;;;;;;;;5052561;28;20104;-69
2022/08/26 11:53:35;;;;;;;23.13;6.45;;;;;;;;;;5052696;28;20147;-68
2022/08/26 11:56:11;;;;;;;23.27;5.93;;;;;;;;;;5052607;28;20090;-67
2022/08/26 11:58:46;;;;;;;20.55;5.93;;;;;;;;;;5054687;28;20040;-69
2022/08/26 12:01:26;;;;;;;22.40;5.72;;;;;;;;;;5056454;28;20095;-69
2022/08/26 12:03:51;;;;;;;24.35;5.85;;;;;;;;;;5056401;28;20036;-69
2022/08/26 12:06:24;;;;;;;20.48;6.07;;;;;;;;;;5056585;28;20029;-66
2022/08/26 12:08:52;;;;;;;14.23;5.50;;;;;;;;;;5056435;28;20086;-69
2022/08/26 12:11:24;;;;;;;22.02;5.28;;;;;;;;;;5056363;28;20096;-66
2022/08/26 12:14:25;;;;;;;30.75;6.00;;;;;;;;;;5056296;28;20032;-65
2022/08/26 12:16:52;;;;;;;21.95;5.80;;;;;;;;;;5056148;28;20188;-69
2022/08/26 12:19:25;;;;;;;17.65;5.47;;;;;;;;;;5055540;28;20029;-70
2022/08/26 12:22:07;;;;;;;24.15;5.63;;;;;;;;;;5055991;28;20033;-70
2022/08/26 12:24:33;;;;;;;27.40;6.35;;;;;;;;;;5055825;28;20029;-65
2022/08/26 12:27:20;;;;;;;23.63;5.97;;;;;;;;;;5056202;28;20032;-73
2022/08/26 12:30:19;;;;;;;21.35;5.75;;;;;;;;;;5056136;28;20021;-64
2022/08/26 12:33:02;;;;;;;23.92;6.05;;;;;;;;;;5055357;28;20116;-69
2022/08/26 12:35:28;;;;;;;24.77;6.13;;;;;;;;;;5055849;28;20055;-69
2022/08/26 12:37:54;;;;;;;17.92;5.72;;;;;;;;;;5055939;28;20463;-63
2022/08/26 12:40:42;;;;;;;19.67;5.88;;;;;;;;;;5055619;28;20025;-65
2022/08/26 12:43:09;;;;;;;24.33;6.57;;;;;;;;;;5055238;28;20049;-70
2022/08/26 12:46:00;;;;;;;20.10;6.03;;;;;;;;;;5055661;28;20100;-67
2022/08/26 12:48:31;;;;;;;18.67;6.25;;;;;;;;;;5055413;28;20025;-66
2022/08/26 12:50:57;;;;;;;21.63;6.07;;;;;;;;;;5055429;28;20035;-64
2022/08/26 12:53:26;;;;;;;19.02;5.63;;;;;;;;;;5055723;28;20025;-68
2022/08/26 12:55:55;;;;;;;24.88;5.82;;;;;;;;;;5055736;28;20032;-64
2022/08/26 12:58:30;;;;;;;22.77;5.82;;;;;;;;;;5055464;28;20021;-68
2022/08/26 13:01:05;;;;;;;18.80;5.88;;;;;;;;;;5055169;28;20375;-64
2022/08/26 13:03:33;;;;;;;21.23;5.80;;;;;;;;;;5055387;28;20037;-68
2022/08/26 13:06:19;;;;;;;26.17;5.93;;;;;;;;;;5055525;28;20029;-66
2022/08/26 13:08:46;;;;;;;22.70;6.03;;;;;;;;;;5055541;28;20195;-69
2022/08/26 13:11:21;;;;;;;21.60;6.10;;;;;;;;;;5054405;28;20037;-65
2022/08/26 13:13:53;;;;;;;29.85;6.10;;;;;;;;;;5055125;28;20450;-65
2022/08/26 13:16:21;;;;;;;15.35;5.63;;;;;;;;;;5055111;28;20017;-71
2022/08/26 13:18:55;;;;;;;21.20;5.65;;;;;;;;;;5055016;28;20519;-66
2022/08/26 13:21:29;;;;;;;18.15;5.55;;;;;;;;;;5054989;28;20035;-65
2022/08/26 13:23:56;;;;;;;19.15;4.75;;;;;;;;;;5053925;28;20079;-70
2022/08/26 13:26:22;;;;;;;20.60;5.75;;;;;;;;;;5054982;28;20574;-64
2022/08/26 13:28:48;;;;;;;17.23;5.13;;;;;;;;;;5054993;28;20047;-65
2022/08/26 13:31:14;;;;;;;11.75;4.65;;;;;;;;;;5054543;28;20029;-64
2022/08/26 13:33:42;;;;;;;19.80;5.88;;;;;;;;;;5054615;28;20020;-71
2022/08/26 13:36:07;;;;;;;21.80;5.05;;;;;;;;;;5054504;28;20021;-68
2022/08/26 13:38:33;;;;;;;21.20;5.38;;;;;;;;;;5054657;28;20467;-71
2022/08/26 13:40:58;;;;;;;16.15;5.50;;;;;;;;;;5054519;28;20532;-67
2022/08/26 13:43:25;;;;;;;18.42;5.32;;;;;;;;;;5054296;28;20059;-71
2022/08/26 13:45:51;;;;;;;18.60;5.78;;;;;;;;;;5054385;28;20021;-71
2022/08/26 13:48:18;;;;;;;18.48;4.90;;;;;;;;;;5054647;28;20047;-69
2022/08/26 13:50:44;;;;;;;16.83;5.00;;;;;;;;;;5053473;28;20112;-67
2022/08/26 13:53:10;;;;;;;22.10;5.30;;;;;;;;;;5054596;28;20045;-69
2022/08/26 13:55:35;;;;;;;18.95;5.57;;;;;;;;;;5054626;28;20139;-69
2022/08/26 13:58:01;;;;;;;19.83;5.15;;;;;;;;;;5054397;28;20021;-70
2022/08/26 14:00:27;;;;;;;14.07;5.05;;;;;;;;;;5053857;28;20091;-67
2022/08/26 14:02:52;;;;;;;17.30;5.07;;;;;;;;;;5054383;28;20464;-70
2022/08/26 14:05:18;;;;;;;16.17;5.43;;;;;;;;;;5054165;28;20425;-64
2022/08/26 14:07:43;;;;;;;15.70;4.78;;;;;;;;;;5054261;28;20032;-66
2022/08/26 14:10:09;;;;;;;13.25;5.18;;;;;;;;;;5053047;28;20036;-69
2022/08/26 14:12:35;;;;;;;15.55;4.90;;;;;;;;;;5053960;28;20044;-68
2022/08/26 14:15:00;;;;;;;19.73;5.53;;;;;;;;;;5053582;28;20158;-71
2022/08/26 14:17:26;;;;;;;14.07;4.82;;;;;;;;;;5053971;28;20060;-65
2022/08/26 14:19:52;;;;;;;18.50;5.32;;;;;;;;;;5053878;28;20112;-62
2022/08/26 14:22:20;;;;;;;21.75;5.68;;;;;;;;;;5052741;28;20029;-62
2022/08/26 14:24:47;;;;;;;21.50;5.45;;;;;;;;;;5053776;28;20029;-65
2022/08/26 14:27:12;;;;;;;18.00;5.18;;;;;;;;;;5053744;28;20056;-63
2022/08/26 14:29:38;;;;;;;16.48;5.32;;;;;;;;;;5053554;28;20118;-65
2022/08/26 14:32:11;;;;;;;16.90;5.00;;;;;;;;;;5053695;28;20029;-63
2022/08/26 14:34:40;;;;;;;16.30;5.38;;;;;;;;;;5053747;28;20062;-65
2022/08/26 14:37:05;;;;;;;22.25;5.82;;;;;;;;;;5053502;28;20067;-68
2022/08/26 14:39:31;;;;;;;23.80;5.50;;;;;;;;;;5053423;28;20033;-66
2022/08/26 14:41:57;;;;;;;18.15;5.43;;;;;;;;;;5053289;28;20044;-63
2022/08/26 14:44:30;;;;;;;16.25;5.40;;;;;;;;;;5053123;28;20411;-64
2022/08/26 14:46:56;;;;;;;16.77;5.35;;;;;;;;;;5053545;28;20486;-65
2022/08/26 14:49:22;;;;;;;17.45;5.22;;;;;;;;;;5053187;28;20471;-69
2022/08/26 14:51:48;;;;;;;21.95;5.70;;;;;;;;;;5053276;28;20020;-64
2022/08/26 14:54:15;;;;;;;16.48;4.90;;;;;;;;;;5053414;28;20032;-64